Observation data for Snyder on 08/14/2019      Previous  Date  Next       Current Mesonet Observations  Soil Data  Daily Summary Page  Observations in Plain Language
KSYS 140500Z 05010G16KT 29/20 A3005 RMK A01 T02910196  RH  060%=      5-min Rain = 0
KSYS 140505Z 06010KT 29/20 A3005 RMK A01 T02900196  RH  060%=      5-min Rain = 0
KSYS 140510Z 06010G16KT 29/20 A3005 RMK A01 T02890196  RH  060%=      5-min Rain = 0
KSYS 140515Z 06012G17KT 29/20 A3004 RMK A01 T02890195  RH  060%=      5-min Rain = 0
KSYS 140520Z 06011G17KT 29/20 A3005 RMK A01 T02880195  RH  060%=      5-min Rain = 0
KSYS 140525Z 06011KT 29/19 A3005 RMK A01 T02870194  RH  061%=      5-min Rain = 0
KSYS 140530Z 06013G21KT 29/19 A3005 RMK A01 T02870194  RH  061%=      5-min Rain = 0
KSYS 140535Z 05010KT 29/19 A3005 RMK A01 T02860194  RH  061%=      5-min Rain = 0
KSYS 140540Z 05010G16KT 29/19 A3005 RMK A01 T02850194  RH  061%=      5-min Rain = 0
KSYS 140545Z 05010G17KT 28/19 A3005 RMK A01 T02840194  RH  061%=      5-min Rain = 0
KSYS 140550Z 05009G14KT 28/19 A3005 RMK A01 T02840194  RH  062%=      5-min Rain = 0
KSYS 140555Z 05010G16KT 28/19 A3005 RMK A01 T02830194  RH  062%=      5-min Rain = 0
KSYS 140600Z 06011G16KT 28/20 A3005 RMK A01 T02830195  RH  062%=      5-min Rain = 0
KSYS 140605Z 06009G14KT 28/20 A3005 RMK A01 T02820195  RH  063%=      5-min Rain = 0
KSYS 140610Z 05010KT 28/20 A3005 RMK A01 T02810195  RH  063%=      5-min Rain = 0
KSYS 140615Z 06010G15KT 28/20 A3005 RMK A01 T02810196  RH  063%=      5-min Rain = 0
KSYS 140620Z 06010KT 28/20 A3005 RMK A01 T02800196  RH  064%=      5-min Rain = 0
KSYS 140625Z 06010G15KT 28/20 A3005 RMK A01 T02780196  RH  065%=      5-min Rain = 0
KSYS 140630Z 05011KT 28/20 A3005 RMK A01 T02770197  RH  065%=      5-min Rain = 0
KSYS 140635Z 05011G16KT 28/20 A3005 RMK A01 T02770197  RH  065%=      5-min Rain = 0
KSYS 140640Z 05010G15KT 28/20 A3005 RMK A01 T02760196  RH  065%=      5-min Rain = 0
KSYS 140645Z 05009KT 28/20 A3005 RMK A01 T02750196  RH  066%=      5-min Rain = 0
KSYS 140650Z 05011G16KT 28/20 A3004 RMK A01 T02750196  RH  066%=      5-min Rain = 0
KSYS 140655Z 05010G16KT 27/20 A3004 RMK A01 T02740196  RH  066%=      5-min Rain = 0
KSYS 140700Z 05012G17KT 27/20 A3004 RMK A01 T02740197  RH  067%=      5-min Rain = 0
KSYS 140705Z 05012G17KT 27/20 A3004 RMK A01 T02730197  RH  067%=      5-min Rain = 0
KSYS 140710Z 05011KT 27/20 A3004 RMK A01 T02720197  RH  067%=      5-min Rain = 0
KSYS 140715Z 05011G16KT 27/20 A3004 RMK A01 T02710197  RH  067%=      5-min Rain = 0
KSYS 140720Z 05011KT 27/20 A3004 RMK A01 T02710197  RH  068%=      5-min Rain = 0
KSYS 140725Z 05011G16KT 27/20 A3004 RMK A01 T02700196  RH  068%=      5-min Rain = 0
KSYS 140730Z 05012G17KT 27/20 A3004 RMK A01 T02700197  RH  068%=      5-min Rain = 0
KSYS 140735Z 04011KT 27/20 A3004 RMK A01 T02700197  RH  068%=      5-min Rain = 0
KSYS 140740Z 04011KT 27/20 A3004 RMK A01 T02690197  RH  068%=      5-min Rain = 0
KSYS 140745Z 04011KT 27/20 A3005 RMK A01 T02690196  RH  068%=      5-min Rain = 0
KSYS 140750Z 04010G15KT 27/20 A3005 RMK A01 T02680196  RH  069%=      5-min Rain = 0
KSYS 140755Z 04011G16KT 27/20 A3005 RMK A01 T02680196  RH  069%=      5-min Rain = 0
KSYS 140800Z 04010KT 27/20 A3005 RMK A01 T02670196  RH  069%=      5-min Rain = 0
KSYS 140805Z 03011G17KT 27/20 A3005 RMK A01 T02670196  RH  069%=      5-min Rain = 0
KSYS 140810Z 03012KT 27/20 A3005 RMK A01 T02670196  RH  068%=      5-min Rain = 0
KSYS 140815Z 04011G16KT 27/20 A3005 RMK A01 T02670195  RH  068%=      5-min Rain = 0
KSYS 140820Z 04012G18KT 27/20 A3005 RMK A01 T02670195  RH  069%=      5-min Rain = 0
KSYS 140825Z 04012G17KT 27/20 A3005 RMK A01 T02660195  RH  069%=      5-min Rain = 0
KSYS 140830Z 04011G16KT 27/20 A3005 RMK A01 T02650195  RH  069%=      5-min Rain = 0
KSYS 140835Z 04011KT 26/20 A3005 RMK A01 T02640195  RH  070%=      5-min Rain = 0
KSYS 140840Z 04010G15KT 26/20 A3005 RMK A01 T02630195  RH  070%=      5-min Rain = 0
KSYS 140845Z 05009KT 26/20 A3004 RMK A01 T02620195  RH  070%=      5-min Rain = 0
KSYS 140850Z 06010KT 26/20 A3004 RMK A01 T02610195  RH  071%=      5-min Rain = 0
KSYS 140855Z 05011G16KT 26/20 A3004 RMK A01 T02600195  RH  071%=      5-min Rain = 0
KSYS 140900Z 04011G17KT 26/20 A3004 RMK A01 T02600195  RH  072%=      5-min Rain = 0
KSYS 140905Z 04012KT 26/20 A3005 RMK A01 T02600195  RH  071%=      5-min Rain = 0
KSYS 140910Z 04013KT 26/20 A3005 RMK A01 T02590195  RH  071%=      5-min Rain = 0
KSYS 140915Z 04012KT 26/20 A3005 RMK A01 T02590195  RH  072%=      5-min Rain = 0
KSYS 140920Z 04011KT 26/20 A3005 RMK A01 T02580195  RH  072%=      5-min Rain = 0
KSYS 140925Z 04011G16KT 26/20 A3005 RMK A01 T02580195  RH  072%=      5-min Rain = 0
KSYS 140930Z 04010G15KT 26/20 A3005 RMK A01 T02570195  RH  072%=      5-min Rain = 0
KSYS 140935Z 05010G15KT 26/19 A3004 RMK A01 T02570194  RH  073%=      5-min Rain = 0
KSYS 140940Z 05010G15KT 26/19 A3004 RMK A01 T02560194  RH  073%=      5-min Rain = 0
KSYS 140945Z 05010G15KT 26/19 A3004 RMK A01 T02550194  RH  073%=      5-min Rain = 0
KSYS 140950Z 04008KT 25/19 A3004 RMK A01 T02540194  RH  073%=      5-min Rain = 0
KSYS 140955Z 05009G14KT 25/19 A3005 RMK A01 T02530194  RH  074%=      5-min Rain = 0
KSYS 141000Z 05010KT 25/19 A3005 RMK A01 T02520194  RH  074%=      5-min Rain = 0
KSYS 141005Z 04009KT 25/19 A3005 RMK A01 T02520194  RH  074%=      5-min Rain = 0
KSYS 141010Z 04011KT 25/19 A3005 RMK A01 T02510193  RH  074%=      5-min Rain = 0
KSYS 141015Z 04011G17KT 25/19 A3005 RMK A01 T02510193  RH  074%=      5-min Rain = 0
KSYS 141020Z 04012G17KT 25/19 A3005 RMK A01 T02500193  RH  075%=      5-min Rain = 0
KSYS 141025Z 04013KT 25/19 A3005 RMK A01 T02500193  RH  075%=      5-min Rain = 0
KSYS 141030Z 04012KT 25/19 A3005 RMK A01 T02500193  RH  075%=      5-min Rain = 0
KSYS 141035Z 04011G16KT 25/19 A3006 RMK A01 T02490193  RH  075%=      5-min Rain = 0
KSYS 141040Z 04011G16KT 25/19 A3006 RMK A01 T02480193  RH  076%=      5-min Rain = 0
KSYS 141045Z 04010KT 25/19 A3006 RMK A01 T02480193  RH  076%=      5-min Rain = 0
KSYS 141050Z 04012G17KT 25/19 A3006 RMK A01 T02470193  RH  076%=      5-min Rain = 0
KSYS 141055Z 04012G18KT 25/19 A3006 RMK A01 T02470192  RH  076%=      5-min Rain = 0
KSYS 141100Z 04011G16KT 25/19 A3007 RMK A01 T02460192  RH  076%=      5-min Rain = 0
KSYS 141105Z 04013G18KT 25/19 A3007 RMK A01 T02460192  RH  076%=      5-min Rain = 0
KSYS 141110Z 04012G17KT 25/19 A3008 RMK A01 T02450191  RH  076%=      5-min Rain = 0
KSYS 141115Z 04011G16KT 25/19 A3008 RMK A01 T02450191  RH  076%=      5-min Rain = 0
KSYS 141120Z 03013KT 24/19 A3008 RMK A01 T02440190  RH  076%=      5-min Rain = 0
KSYS 141125Z 03012KT 24/19 A3008 RMK A01 T02430189  RH  076%=      5-min Rain = 0
KSYS 141130Z 03012KT 24/19 A3008 RMK A01 T02420189  RH  076%=      5-min Rain = 0
KSYS 141135Z 03014KT 24/19 A3008 RMK A01 T02410189  RH  077%=      5-min Rain = 0
KSYS 141140Z 04013G18KT 24/19 A3008 RMK A01 T02410190  RH  077%=      5-min Rain = 0
KSYS 141145Z 04013G19KT 24/19 A3008 RMK A01 T02400190  RH  078%=      5-min Rain = 0
KSYS 141150Z 03012G17KT 24/19 A3009 RMK A01 T02390190  RH  078%=      5-min Rain = 0
KSYS 141155Z 03014G21KT 24/19 A3009 RMK A01 T02390191  RH  079%=      5-min Rain = 0
KSYS 141200Z 04013G18KT 24/19 A3009 RMK A01 T02380192  RH  080%=      5-min Rain = 0
KSYS 141205Z 04014G23KT 24/19 A301 RMK A01 T02370193  RH  081%=      5-min Rain = 0
KSYS 141210Z 04013G19KT 24/19 A301 RMK A01 T02370193  RH  081%=      5-min Rain = 0
KSYS 141215Z 04013G19KT 24/19 A301 RMK A01 T02360194  RH  081%=      5-min Rain = 0
KSYS 141220Z 04015G21KT 24/19 A301 RMK A01 T02360194  RH  082%=      5-min Rain = 0
KSYS 141225Z 04012G18KT 24/19 A301 RMK A01 T02360194  RH  082%=      5-min Rain = 0
KSYS 141230Z 04015G20KT 24/19 A301 RMK A01 T02360194  RH  082%=      5-min Rain = 0
KSYS 141235Z 04013G18KT 24/20 A301 RMK A01 T02370195  RH  082%=      5-min Rain = 0
KSYS 141240Z 04011G17KT 24/20 A301 RMK A01 T02370195  RH  081%=      5-min Rain = 0
KSYS 141245Z 03011G16KT 24/19 A301 RMK A01 T02380194  RH  081%=      5-min Rain = 0
KSYS 141250Z 04012G17KT 24/19 A3011 RMK A01 T02380194  RH  081%=      5-min Rain = 0
KSYS 141255Z 03012G17KT 24/19 A3011 RMK A01 T02380194  RH  081%=      5-min Rain = 0
KSYS 141300Z 04012G20KT 24/20 A3011 RMK A01 T02390195  RH  081%=      5-min Rain = 0
KSYS 141305Z 03012G17KT 24/20 A3011 RMK A01 T02400195  RH  081%=      5-min Rain = 0
KSYS 141310Z 03013G18KT 24/20 A3011 RMK A01 T02400195  RH  081%=      5-min Rain = 0
KSYS 141315Z 03014G19KT 24/20 A3011 RMK A01 T02400195  RH  080%=      5-min Rain = 0
KSYS 141320Z 03014G20KT 24/20 A3012 RMK A01 T02400195  RH  080%=      5-min Rain = 0
KSYS 141325Z 02015G20KT 24/20 A3012 RMK A01 T02400196  RH  081%=      5-min Rain = 0
KSYS 141330Z 03012G19KT 24/20 A3012 RMK A01 T02400197  RH  081%=      5-min Rain = 0
KSYS 141335Z 02015G22KT 24/20 A3012 RMK A01 T02400197  RH  081%=      5-min Rain = 0
KSYS 141340Z 02016G24KT 24/20 A3012 RMK A01 T02390196  RH  082%=      5-min Rain = 0
KSYS 141345Z 03017G22KT 24/20 A3012 RMK A01 T02390195  RH  081%=      5-min Rain = 0
KSYS 141350Z 02014G21KT 24/19 A3012 RMK A01 T02390194  RH  080%=      5-min Rain = 0
KSYS 141355Z 02014G19KT 24/19 A3013 RMK A01 T02400193  RH  079%=      5-min Rain = 0
KSYS 141400Z 02013G20KT 24/19 A3014 RMK A01 T02410192  RH  079%=      5-min Rain = 0
KSYS 141405Z 02014G22KT 24/19 A3014 RMK A01 T02410192  RH  078%=      5-min Rain = 0
KSYS 141410Z 02014G21KT 24/19 A3014 RMK A01 T02420192  RH  078%=      5-min Rain = 0
KSYS 141415Z 02015KT 24/19 A3015 RMK A01 T02430193  RH  078%=      5-min Rain = 0
KSYS 141420Z 03013G18KT 24/19 A3015 RMK A01 T02440193  RH  077%=      5-min Rain = 0
KSYS 141425Z 01012G17KT 25/19 A3015 RMK A01 T02470191  RH  075%=      5-min Rain = 0
KSYS 141430Z 01013G19KT 25/19 A3015 RMK A01 T02470191  RH  075%=      5-min Rain = 0
KSYS 141435Z 01014G20KT 25/19 A3016 RMK A01 T02480191  RH  075%=      5-min Rain = 0
KSYS 141440Z 02015G20KT 25/19 A3016 RMK A01 T02470191  RH  075%=      5-min Rain = 0
KSYS 141445Z 02012G18KT 25/19 A3016 RMK A01 T02490191  RH  074%=      5-min Rain = 0
KSYS 141450Z 02012KT 25/19 A3016 RMK A01 T02500190  RH  073%=      5-min Rain = 0
KSYS 141455Z 02011G17KT 25/19 A3017 RMK A01 T02520191  RH  073%=      5-min Rain = 0
KSYS 141500Z 02013G18KT 25/19 A3017 RMK A01 T02520190  RH  073%=      5-min Rain = 0
KSYS 141505Z 02014G19KT 25/19 A3017 RMK A01 T02520191  RH  072%=      5-min Rain = 0
KSYS 141510Z 02016G22KT 25/19 A3017 RMK A01 T02540191  RH  072%=      5-min Rain = 0
KSYS 141515Z 03013G18KT 25/19 A3017 RMK A01 T02540190  RH  071%=      5-min Rain = 0
KSYS 141520Z 02013G18KT 26/19 A3017 RMK A01 T02580190  RH  070%=      5-min Rain = 0
KSYS 141525Z 02015KT 26/19 A3017 RMK A01 T02600189  RH  069%=      5-min Rain = 0
KSYS 141530Z 03012G17KT 26/19 A3017 RMK A01 T02600189  RH  069%=      5-min Rain = 0
KSYS 141535Z 03013G18KT 27/19 A3017 RMK A01 T02650190  RH  067%=      5-min Rain = 0
KSYS 141540Z 03012G17KT 27/19 A3017 RMK A01 T02680189  RH  066%=      5-min Rain = 0
KSYS 141545Z 03014G20KT 27/19 A3017 RMK A01 T02710189  RH  064%=      5-min Rain = 0
KSYS 141550Z 02012G17KT 27/19 A3017 RMK A01 T02700190  RH  065%=      5-min Rain = 0
KSYS 141555Z 03012G19KT 27/19 A3017 RMK A01 T02730190  RH  064%=      5-min Rain = 0
KSYS 141600Z 03013G21KT 28/19 A3017 RMK A01 T02760190  RH  063%=      5-min Rain = 0
KSYS 141605Z 03014G20KT 28/19 A3017 RMK A01 T02760191  RH  064%=      5-min Rain = 0
KSYS 141610Z 03012G17KT 28/19 A3017 RMK A01 T02770192  RH  063%=      5-min Rain = 0
KSYS 141615Z 02013G19KT 28/19 A3017 RMK A01 T02800193  RH  062%=      5-min Rain = 0
KSYS 141620Z 04014G21KT 28/19 A3017 RMK A01 T02830192  RH  061%=      5-min Rain = 0
KSYS 141625Z 04013KT 28/19 A3017 RMK A01 T02840192  RH  061%=      5-min Rain = 0
KSYS 141630Z 03013G19KT 29/19 A3016 RMK A01 T02860192  RH  060%=      5-min Rain = 0
KSYS 141635Z 03012G22KT 29/19 A3016 RMK A01 T02870192  RH  060%=      5-min Rain = 0
KSYS 141640Z 04012G18KT 29/19 A3016 RMK A01 T02880192  RH  059%=      5-min Rain = 0
KSYS 141645Z 03011G19KT 29/19 A3016 RMK A01 T02910193  RH  059%=      5-min Rain = 0
KSYS 141650Z 05011G16KT 30/19 A3016 RMK A01 T02950193  RH  057%=      5-min Rain = 0
KSYS 141655Z 04011G16KT 30/19 A3016 RMK A01 T02950192  RH  057%=      5-min Rain = 0
KSYS 141700Z 05011G18KT 30/19 A3016 RMK A01 T02990193  RH  056%=      5-min Rain = 0
KSYS 141705Z 05011G16KT 30/19 A3016 RMK A01 T03030193  RH  055%=      5-min Rain = 0
KSYS 141710Z 04012KT 30/19 A3016 RMK A01 T03040192  RH  054%=      5-min Rain = 0
KSYS 141715Z 05011KT 30/19 A3015 RMK A01 T03020192  RH  055%=      5-min Rain = 0
KSYS 141720Z 04010G15KT 31/19 A3015 RMK A01 T03050191  RH  054%=      5-min Rain = 0
KSYS 141725Z 04008G13KT 31/19 A3015 RMK A01 T03060191  RH  053%=      5-min Rain = 0
KSYS 141730Z 04010KT 31/19 A3014 RMK A01 T03130190  RH  051%=      5-min Rain = 0
KSYS 141735Z 05010G16KT 31/19 A3014 RMK A01 T03130189  RH  050%=      5-min Rain = 0
KSYS 141740Z 03009G14KT 31/19 A3014 RMK A01 T03140189  RH  050%=      5-min Rain = 0
KSYS 141745Z 04009G15KT 32/19 A3014 RMK A01 T03150188  RH  049%=      5-min Rain = 0
KSYS 141750Z 03011G16KT 32/19 A3014 RMK A01 T03160187  RH  049%=      5-min Rain = 0
KSYS 141755Z 04011G16KT 32/19 A3014 RMK A01 T03180187  RH  049%=      5-min Rain = 0
KSYS 141800Z 04008G14KT 32/19 A3013 RMK A01 T03160187  RH  049%=      5-min Rain = 0
KSYS 141805Z 05009G14KT 32/19 A3013 RMK A01 T03220185  RH  047%=      5-min Rain = 0
KSYS 141810Z 06011G16KT 32/18 A3013 RMK A01 T03240184  RH  046%=      5-min Rain = 0
KSYS 141815Z 06009G14KT 32/18 A3012 RMK A01 T03230183  RH  046%=      5-min Rain = 0
KSYS 141820Z 03011KT 32/18 A3012 RMK A01 T03240182  RH  045%=      5-min Rain = 0
KSYS 141825Z 03010KT 33/18 A3012 RMK A01 T03260181  RH  045%=      5-min Rain = 0
KSYS 141830Z 04008G13KT 33/18 A3012 RMK A01 T03280183  RH  044%=      5-min Rain = 0
KSYS 141835Z 06009G17KT 33/19 A3012 RMK A01 T03300185  RH  045%=      5-min Rain = 0
KSYS 141840Z 05009G14KT 33/18 A3011 RMK A01 T03300175  RH  042%=      5-min Rain = 0
KSYS 141845Z 04009KT 33/18 A3011 RMK A01 T03320176  RH  042%=      5-min Rain = 0
KSYS 141850Z 05007KT 34/18 A3011 RMK A01 T03370175  RH  040%=      5-min Rain = 0
KSYS 141855Z 05009G14KT 34/18 A3011 RMK A01 T03410177  RH  040%=      5-min Rain = 0
KSYS 141900Z 07008G13KT 34/18 A3011 RMK A01 T03380176  RH  040%=      5-min Rain = 0
KSYS 141905Z 08008G16KT 34/18 A3011 RMK A01 T03370175  RH  040%=      5-min Rain = 0
KSYS 141910Z 07009G15KT 34/18 A3011 RMK A01 T03430176  RH  039%=      5-min Rain = 0
KSYS 141915Z 06009G15KT 34/17 A3011 RMK A01 T03400173  RH  039%=      5-min Rain = 0
KSYS 141920Z 06008G18KT 34/17 A301 RMK A01 T03380172  RH  039%=      5-min Rain = 0
KSYS 141925Z 07009G14KT 34/17 A301 RMK A01 T03420170  RH  038%=      5-min Rain = 0
KSYS 141930Z 05008G17KT 34/17 A301 RMK A01 T03420169  RH  037%=      5-min Rain = 0
KSYS 141935Z 05012KT 34/17 A301 RMK A01 T03420166  RH  037%=      5-min Rain = 0
KSYS 141940Z 05009G14KT 34/16 A301 RMK A01 T03370161  RH  037%=      5-min Rain = 0
KSYS 141945Z 06008G14KT 34/17 A3009 RMK A01 T03440165  RH  036%=      5-min Rain = 0
KSYS 141950Z 05010G18KT 35/16 A3009 RMK A01 T03490164  RH  035%=      5-min Rain = 0
KSYS 141955Z 05010G15KT 35/17 A3009 RMK A01 T03470166  RH  036%=      5-min Rain = 0
KSYS 142000Z 04010G15KT 35/16 A3008 RMK A01 T03470160  RH  034%=      5-min Rain = 0
KSYS 142005Z 05009KT 35/16 A3008 RMK A01 T03480164  RH  035%=      5-min Rain = 0
KSYS 142010Z 07009G16KT 35/16 A3008 RMK A01 T03520164  RH  034%=      5-min Rain = 0
KSYS 142015Z 08013G18KT 35/17 A3007 RMK A01 T03510167  RH  035%=      5-min Rain = 0
KSYS 142020Z 08008G18KT 35/17 A3006 RMK A01 T03470171  RH  037%=      5-min Rain = 0
KSYS 142025Z 08010G17KT 35/17 A3006 RMK A01 T03510168  RH  036%=      5-min Rain = 0
KSYS 142030Z 05011G17KT 35/16 A3006 RMK A01 T03520162  RH  034%=      5-min Rain = 0
KSYS 142035Z 06011G17KT 35/17 A3006 RMK A01 T03480166  RH  036%=      5-min Rain = 0
KSYS 142040Z 07006G14KT 35/17 A3006 RMK A01 T03480166  RH  036%=      5-min Rain = 0
KSYS 142045Z 07010KT 35/16 A3006 RMK A01 T03510156  RH  033%=      5-min Rain = 0
KSYS 142050Z 05010KT 35/16 A3005 RMK A01 T03500156  RH  033%=      5-min Rain = 0
KSYS 142055Z 03007G14KT 35/16 A3005 RMK A01 T03500158  RH  033%=      5-min Rain = 0
KSYS 142100Z 05010G17KT 35/16 A3005 RMK A01 T03510164  RH  035%=      5-min Rain = 0
KSYS 142105Z 07014G19KT 35/16 A3005 RMK A01 T03500163  RH  035%=      5-min Rain = 0
KSYS 142110Z 06007G15KT 35/17 A3005 RMK A01 T03470166  RH  036%=      5-min Rain = 0
KSYS 142115Z 07009G15KT 35/17 A3004 RMK A01 T03520167  RH  035%=      5-min Rain = 0
KSYS 142120Z 07009G20KT 35/16 A3004 RMK A01 T03510163  RH  034%=      5-min Rain = 0
KSYS 142125Z 07012G18KT 35/16 A3004 RMK A01 T03520160  RH  034%=      5-min Rain = 0
KSYS 142130Z 07009KT 35/16 A3004 RMK A01 T03520158  RH  033%=      5-min Rain = 0
KSYS 142135Z 07009G14KT 35/16 A3004 RMK A01 T03530161  RH  033%=      5-min Rain = 0
KSYS 142140Z 06009G16KT 35/16 A3004 RMK A01 T03500159  RH  034%=      5-min Rain = 0
KSYS 142145Z 06010G16KT 35/16 A3004 RMK A01 T03480160  RH  034%=      5-min Rain = 0
KSYS 142150Z 07011G16KT 35/16 A3004 RMK A01 T03490157  RH  033%=      5-min Rain = 0
KSYS 142155Z 06008G14KT 35/16 A3004 RMK A01 T03480158  RH  034%=      5-min Rain = 0
KSYS 142200Z 08006G11KT 35/16 A3004 RMK A01 T03500157  RH  033%=      5-min Rain = 0
KSYS 142205Z 08010G17KT 35/16 A3004 RMK A01 T03540157  RH  033%=      5-min Rain = 0
KSYS 142210Z 08011KT 35/16 A3004 RMK A01 T03510158  RH  033%=      5-min Rain = 0
KSYS 142215Z 07008G13KT 35/16 A3004 RMK A01 T03500160  RH  034%=      5-min Rain = 0
KSYS 142220Z 10009KT 35/16 A3004 RMK A01 T03510161  RH  034%=      5-min Rain = 0
KSYS 142225Z 11010KT 35/16 A3004 RMK A01 T03520159  RH  033%=      5-min Rain = 0
KSYS 142230Z 07010G15KT 35/16 A3004 RMK A01 T03520155  RH  033%=      5-min Rain = 0
KSYS 142235Z 07008G15KT 35/15 A3004 RMK A01 T03520154  RH  032%=      5-min Rain = 0
KSYS 142240Z 07010G15KT 35/15 A3004 RMK A01 T03500152  RH  032%=      5-min Rain = 0
KSYS 142245Z 08009G15KT 35/15 A3003 RMK A01 T03500153  RH  032%=      5-min Rain = 0
KSYS 142250Z 10007G15KT 35/16 A3003 RMK A01 T03500155  RH  033%=      5-min Rain = 0
KSYS 142255Z 12008G15KT 35/16 A3003 RMK A01 T03480156  RH  033%=      5-min Rain = 0
KSYS 142300Z 09009G16KT 35/16 A3003 RMK A01 T03490155  RH  033%=      5-min Rain = 0
KSYS 142305Z 12007KT 35/16 A3003 RMK A01 T03480155  RH  033%=      5-min Rain = 0
KSYS 142310Z 10008G16KT 35/16 A3003 RMK A01 T03490157  RH  033%=      5-min Rain = 0
KSYS 142315Z 09009KT 35/16 A3003 RMK A01 T03490155  RH  033%=      5-min Rain = 0
KSYS 142320Z 10010KT 35/15 A3003 RMK A01 T03460153  RH  033%=      5-min Rain = 0
KSYS 142325Z 11008KT 35/15 A3003 RMK A01 T03450154  RH  033%=      5-min Rain = 0
KSYS 142330Z 09006G11KT 35/15 A3003 RMK A01 T03450154  RH  033%=      5-min Rain = 0
KSYS 142335Z 08008KT 35/15 A3003 RMK A01 T03470151  RH  032%=      5-min Rain = 0
KSYS 142340Z 06006KT 35/15 A3003 RMK A01 T03450151  RH  033%=      5-min Rain = 0
KSYS 142345Z 08008KT 34/15 A3003 RMK A01 T03440147  RH  032%=      5-min Rain = 0
KSYS 142350Z 07007KT 34/15 A3003 RMK A01 T03420148  RH  033%=      5-min Rain = 0
KSYS 142355Z 08008G13KT 34/15 A3003 RMK A01 T03410148  RH  033%=      5-min Rain = 0
KSYS 150000Z 08007KT 34/15 A3003 RMK A01 T03390147  RH  033%=      5-min Rain = 0
KSYS 150005Z 07008G13KT 34/15 A3003 RMK A01 T03400149  RH  033%=      5-min Rain = 0
KSYS 150010Z 07009KT 34/15 A3003 RMK A01 T03390152  RH  034%=      5-min Rain = 0
KSYS 150015Z 08008KT 34/15 A3003 RMK A01 T03370151  RH  034%=      5-min Rain = 0
KSYS 150020Z 07007KT 34/15 A3003 RMK A01 T03350149  RH  034%=      5-min Rain = 0
KSYS 150025Z 09008KT 34/15 A3003 RMK A01 T03350153  RH  035%=      5-min Rain = 0
KSYS 150030Z 08009KT 33/15 A3003 RMK A01 T03330152  RH  035%=      5-min Rain = 0
KSYS 150035Z 09009KT 33/15 A3003 RMK A01 T03310150  RH  035%=      5-min Rain = 0
KSYS 150040Z 07007KT 33/15 A3003 RMK A01 T03300148  RH  035%=      5-min Rain = 0
KSYS 150045Z 07007KT 33/15 A3003 RMK A01 T03280151  RH  036%=      5-min Rain = 0
KSYS 150050Z 07006KT 33/15 A3003 RMK A01 T03270154  RH  037%=      5-min Rain = 0
KSYS 150055Z 06007KT 33/15 A3003 RMK A01 T03250154  RH  037%=      5-min Rain = 0
KSYS 150100Z 07007KT 32/15 A3004 RMK A01 T03230154  RH  038%=      5-min Rain = 0
KSYS 150105Z 07006KT 32/16 A3004 RMK A01 T03210157  RH  039%=      5-min Rain = 0
KSYS 150110Z 07008KT 32/16 A3004 RMK A01 T03180158  RH  040%=      5-min Rain = 0
KSYS 150115Z 07007KT 32/16 A3004 RMK A01 T03160157  RH  040%=      5-min Rain = 0
KSYS 150120Z 07007KT 32/16 A3004 RMK A01 T03150158  RH  041%=      5-min Rain = 0
KSYS 150125Z 08006KT 31/16 A3005 RMK A01 T03120158  RH  041%=      5-min Rain = 0
KSYS 150130Z 09007KT 31/16 A3005 RMK A01 T03100157  RH  041%=      5-min Rain = 0
KSYS 150135Z 09006KT 31/16 A3005 RMK A01 T03080156  RH  042%=      5-min Rain = 0
KSYS 150140Z 08006KT 31/16 A3005 RMK A01 T03060157  RH  042%=      5-min Rain = 0
KSYS 150145Z 08006KT 30/16 A3005 RMK A01 T03040157  RH  043%=      5-min Rain = 0
KSYS 150150Z 08006KT 30/16 A3006 RMK A01 T03020158  RH  044%=      5-min Rain = 0
KSYS 150155Z 08006KT 30/16 A3006 RMK A01 T03010158  RH  044%=      5-min Rain = 0
KSYS 150200Z 08006KT 30/16 A3006 RMK A01 T03000159  RH  045%=      5-min Rain = 0
KSYS 150205Z 08006KT 30/16 A3006 RMK A01 T02980159  RH  045%=      5-min Rain = 0
KSYS 150210Z 08006KT 30/16 A3007 RMK A01 T02960160  RH  046%=      5-min Rain = 0
KSYS 150215Z 07006KT 30/16 A3007 RMK A01 T02950160  RH  046%=      5-min Rain = 0
KSYS 150220Z 08006KT 30/16 A3007 RMK A01 T02950161  RH  046%=      5-min Rain = 0
KSYS 150225Z 07006KT 29/16 A3007 RMK A01 T02940161  RH  047%=      5-min Rain = 0
KSYS 150230Z 08007KT 29/16 A3008 RMK A01 T02930161  RH  047%=      5-min Rain = 0
KSYS 150235Z 08007KT 29/16 A3008 RMK A01 T02930161  RH  047%=      5-min Rain = 0
KSYS 150240Z 07007KT 29/16 A3008 RMK A01 T02930161  RH  047%=      5-min Rain = 0
KSYS 150245Z 07007KT 29/16 A3009 RMK A01 T02930163  RH  047%=      5-min Rain = 0
KSYS 150250Z 08008KT 29/16 A3009 RMK A01 T02940164  RH  048%=      5-min Rain = 0
KSYS 150255Z 07007KT 29/17 A3009 RMK A01 T02940166  RH  048%=      5-min Rain = 0
KSYS 150300Z 07007KT 29/17 A3009 RMK A01 T02930167  RH  049%=      5-min Rain = 0
KSYS 150305Z 08007KT 29/17 A3009 RMK A01 T02920167  RH  049%=      5-min Rain = 0
KSYS 150310Z 07007KT 29/17 A3009 RMK A01 T02910168  RH  050%=      5-min Rain = 0
KSYS 150315Z 07007KT 29/17 A301 RMK A01 T02910169  RH  050%=      5-min Rain = 0
KSYS 150320Z 08007KT 29/17 A301 RMK A01 T02900169  RH  050%=      5-min Rain = 0
KSYS 150325Z 08007KT 29/17 A301 RMK A01 T02880170  RH  051%=      5-min Rain = 0
KSYS 150330Z 08008KT 29/17 A301 RMK A01 T02870170  RH  052%=      5-min Rain = 0
KSYS 150335Z 06008G13KT 29/17 A3009 RMK A01 T02890170  RH  051%=      5-min Rain = 0
KSYS 150340Z 06008KT 29/17 A301 RMK A01 T02910170  RH  051%=      5-min Rain = 0
KSYS 150345Z 07009KT 29/17 A301 RMK A01 T02920171  RH  050%=      5-min Rain = 0
KSYS 150350Z 07008KT 29/17 A301 RMK A01 T02900171  RH  051%=      5-min Rain = 0
KSYS 150355Z 07007KT 29/17 A301 RMK A01 T02890171  RH  052%=      5-min Rain = 0
KSYS 150400Z 08007KT 29/17 A301 RMK A01 T02850171  RH  053%=      5-min Rain = 0
KSYS 150405Z 08007KT 28/17 A301 RMK A01 T02810172  RH  054%=      5-min Rain = 0
KSYS 150410Z 07008KT 28/17 A301 RMK A01 T02800172  RH  054%=      5-min Rain = 0
KSYS 150415Z 07009KT 28/17 A301 RMK A01 T02820172  RH  054%=      5-min Rain = 0
KSYS 150420Z 08009KT 28/17 A301 RMK A01 T02830173  RH  054%=      5-min Rain = 0
KSYS 150425Z 08008KT 28/17 A301 RMK A01 T02830174  RH  054%=      5-min Rain = 0
KSYS 150430Z 09008KT 28/17 A301 RMK A01 T02820174  RH  055%=      5-min Rain = 0
KSYS 150435Z 09008KT 28/17 A301 RMK A01 T02790174  RH  056%=      5-min Rain = 0
KSYS 150440Z 09008G14KT 28/17 A301 RMK A01 T02770174  RH  056%=      5-min Rain = 0
KSYS 150445Z 08009G14KT 28/18 A301 RMK A01 T02780175  RH  056%=      5-min Rain = 0
KSYS 150450Z 09011KT 28/18 A3011 RMK A01 T02780175  RH  056%=      5-min Rain = 0
KSYS 150455Z 08011G16KT 28/18 A3011 RMK A01 T02780175  RH  056%=      5-min Rain = 0

Page generated in 0.0126 seconds.